Time;durP1;ratioP1;P1;durP2;ratioP2;P2;SDS_P1;SDS_P2;PMS_P1;PMS_P2;Temp;Humidity;BMP_temperature;BMP_pressure;BME280_temperature;BME280_humidity;BME280_pressure;Samples;Min_cycle;Max_cycle;Signal;HPM_P1;HPM_P2
2023/06/30 00:01:31;;;;;;;0.93;0.68;;;;;;;19.48;62.71;100661.97;6091959;23;20022;-71
2023/06/30 00:03:58;;;;;;;1.40;0.50;;;;;;;19.46;62.81;100663.84;6093490;23;20101;-71
2023/06/30 00:06:26;;;;;;;0.90;0.90;;;;;;;19.44;62.83;100655.13;6093302;23;20478;-71
2023/06/30 00:08:52;;;;;;;2.22;0.80;;;;;;;19.41;62.80;100660.63;6093525;23;20098;-71
2023/06/30 00:11:23;;;;;;;0.90;0.70;;;;;;;19.39;62.85;100654.53;6093777;23;20029;-71
2023/06/30 00:13:52;;;;;;;5.03;1.10;;;;;;;19.36;62.82;100654.72;6093876;23;20030;-71
2023/06/30 00:16:19;;;;;;;2.67;1.00;;;;;;;19.33;62.85;100662.84;6093925;23;20030;-71
2023/06/30 00:18:46;;;;;;;1.20;0.90;;;;;;;19.31;62.82;100656.78;6093691;23;20050;-71
2023/06/30 00:21:13;;;;;;;1.02;0.63;;;;;;;19.27;62.78;100657.91;6093431;23;20038;-71
2023/06/30 00:23:40;;;;;;;2.63;0.60;;;;;;;19.25;62.79;100654.47;6093319;23;20026;-72
2023/06/30 00:26:07;;;;;;;4.93;0.70;;;;;;;19.22;62.76;100652.84;6093507;23;20037;-71
2023/06/30 00:28:36;;;;;;;0.75;0.68;;;;;;;19.18;62.77;100653.97;6093413;23;20023;-71
2023/06/30 00:31:03;;;;;;;2.90;0.85;;;;;;;19.13;62.61;100648.09;6093444;23;20022;-71
2023/06/30 00:33:30;;;;;;;4.93;0.75;;;;;;;19.11;62.75;100649.94;6093613;23;20026;-71
2023/06/30 00:35:57;;;;;;;2.88;0.70;;;;;;;19.08;62.91;100652.78;6093307;23;20029;-71
2023/06/30 00:38:24;;;;;;;3.13;1.08;;;;;;;19.04;62.87;100646.81;6095052;23;20097;-71
2023/06/30 00:40:51;;;;;;;0.90;0.70;;;;;;;19.02;62.64;100648.69;6095608;23;20022;-72
2023/06/30 00:43:18;;;;;;;0.73;0.73;;;;;;;18.98;62.91;100639.22;6095226;23;20032;-71
2023/06/30 00:45:46;;;;;;;2.08;1.10;;;;;;;18.94;62.79;100645.59;6094818;23;20033;-71
2023/06/30 00:48:13;;;;;;;0.98;0.77;;;;;;;18.91;62.84;100645.78;6095336;23;20018;-71
2023/06/30 00:50:40;;;;;;;1.42;0.82;;;;;;;18.82;63.20;100635.69;6095406;23;20037;-71
2023/06/30 00:53:07;;;;;;;2.17;0.98;;;;;;;18.84;63.18;100642.63;6095670;23;20026;-71
2023/06/30 00:55:36;;;;;;;6.22;1.23;;;;;;;18.81;63.10;100640.13;6095498;23;20536;-71
2023/06/30 00:58:02;;;;;;;1.38;0.68;;;;;;;18.78;63.10;100644.72;6095432;23;20343;-71
2023/06/30 01:00:29;;;;;;;1.55;1.00;;;;;;;18.75;63.26;100639.59;6093715;23;20029;-71
2023/06/30 01:03:06;;;;;;;3.47;0.80;;;;;;;18.71;63.12;100638.88;6095003;23;20101;-71
2023/06/30 01:05:41;;;;;;;1.10;0.80;;;;;;;18.64;63.43;100633.09;6095034;23;20022;-71
2023/06/30 01:08:16;;;;;;;1.00;0.75;;;;;;;18.64;63.34;100638.38;6094979;23;20026;-71
2023/06/30 01:10:45;;;;;;;3.53;1.33;;;;;;;18.61;63.27;100633.25;6095016;23;20028;-71
2023/06/30 01:13:12;;;;;;;1.50;0.82;;;;;;;18.57;63.38;100631.69;6095188;23;20531;-71
2023/06/30 01:15:41;;;;;;;1.08;0.73;;;;;;;18.55;63.60;100635.34;6094890;23;20030;-71
2023/06/30 01:18:12;;;;;;;3.47;0.77;;;;;;;18.50;63.80;100637.38;6095131;23;20023;-71
2023/06/30 01:20:41;;;;;;;0.75;0.75;;;;;;;18.46;63.84;100634.06;6094235;23;20113;-71
2023/06/30 01:23:13;;;;;;;5.15;0.82;;;;;;;18.39;63.64;100630.06;6095203;23;20033;-71
2023/06/30 01:25:41;;;;;;;3.97;1.10;;;;;;;18.38;63.84;100631.81;6095325;23;20041;-71
2023/06/30 01:28:09;;;;;;;2.13;1.10;;;;;;;18.36;63.78;100636.34;6094529;23;20474;-71
2023/06/30 01:30:36;;;;;;;1.45;0.80;;;;;;;18.34;63.82;100634.72;6094672;23;20022;-71
2023/06/30 01:33:03;;;;;;;2.03;0.93;;;;;;;18.30;63.71;100636.69;6094565;23;20027;-71
2023/06/30 01:35:32;;;;;;;3.47;0.80;;;;;;;18.19;64.01;100623.19;6094952;23;20019;-71
2023/06/30 01:37:59;;;;;;;2.72;1.00;;;;;;;18.23;63.91;100635.28;6094704;23;20548;-71
2023/06/30 01:40:26;;;;;;;2.33;0.90;;;;;;;18.19;64.08;100626.66;6094401;23;20032;-71
2023/06/30 01:42:56;;;;;;;4.00;1.10;;;;;;;18.17;64.04;100633.81;6094337;23;20033;-71
2023/06/30 01:45:24;;;;;;;3.17;0.93;;;;;;;18.13;63.95;100629.63;6094870;23;20022;-71
2023/06/30 01:47:52;;;;;;;0.95;0.80;;;;;;;18.11;64.26;100639.44;6094860;23;20019;-71
2023/06/30 01:50:19;;;;;;;3.15;0.80;;;;;;;18.07;64.44;100629.97;6094671;23;20032;-71
2023/06/30 01:52:48;;;;;;;1.00;0.90;;;;;;;18.05;64.46;100618.59;6094655;23;20026;-71
2023/06/30 01:55:15;;;;;;;3.50;1.02;;;;;;;18.03;64.48;100625.75;6094968;23;20026;-71
2023/06/30 01:57:42;;;;;;;1.67;1.17;;;;;;;18.01;64.49;100634.69;6094881;23;20365;-71
2023/06/30 02:00:10;;;;;;;2.10;0.90;;;;;;;17.98;64.78;100618.03;6094339;23;20097;-71
2023/06/30 02:02:36;;;;;;;0.95;0.90;;;;;;;17.97;64.63;100626.06;6094538;23;20054;-71
2023/06/30 02:05:04;;;;;;;2.88;0.95;;;;;;;17.94;64.62;100628.88;6094640;23;20032;-71
2023/06/30 02:07:30;;;;;;;1.38;0.90;;;;;;;17.90;64.81;100624.66;6094519;23;20018;-71
2023/06/30 02:09:59;;;;;;;1.50;1.02;;;;;;;17.88;65.13;100610.69;6093754;23;20050;-71
2023/06/30 02:12:26;;;;;;;2.35;1.27;;;;;;;17.87;65.20;100622.19;6094466;23;20022;-71
2023/06/30 02:14:53;;;;;;;6.03;2.22;;;;;;;17.83;65.48;100613.56;6094105;23;20486;-71
2023/06/30 02:17:27;;;;;;;3.40;0.80;;;;;;;17.81;65.34;100623.34;6094865;23;20085;-71
2023/06/30 02:19:55;;;;;;;2.85;1.15;;;;;;;17.81;65.60;100622.50;6094124;23;20026;-71
2023/06/30 02:22:22;;;;;;;1.92;1.13;;;;;;;17.80;65.72;100616.38;6094707;23;20022;-71
2023/06/30 02:24:48;;;;;;;1.98;1.25;;;;;;;17.77;65.78;100619.13;6094383;23;20033;-71
2023/06/30 02:27:17;;;;;;;2.13;1.20;;;;;;;17.77;66.16;100619.97;6094245;23;20025;-71
2023/06/30 02:29:44;;;;;;;2.17;1.33;;;;;;;17.69;66.06;100603.66;6094477;23;20094;-71
2023/06/30 02:32:11;;;;;;;3.97;1.23;;;;;;;17.75;66.33;100611.28;6094489;23;20022;-71
2023/06/30 02:34:38;;;;;;;1.75;1.17;;;;;;;17.76;66.35;100617.44;6094154;23;20026;-70
2023/06/30 02:37:05;;;;;;;1.73;1.45;;;;;;;17.75;66.23;100605.13;6094287;23;20026;-71
2023/06/30 02:39:32;;;;;;;3.75;1.30;;;;;;;17.73;66.29;100602.59;6094354;23;20018;-71
2023/06/30 02:41:59;;;;;;;1.23;1.13;;;;;;;17.72;66.79;100603.50;6094357;23;20025;-71
2023/06/30 02:44:27;;;;;;;1.38;1.27;;;;;;;17.71;66.92;100600.97;6094355;23;20026;-71
2023/06/30 02:46:54;;;;;;;2.75;1.58;;;;;;;17.73;67.14;100605.22;6093783;23;20029;-71
2023/06/30 02:49:21;;;;;;;8.13;1.35;;;;;;;17.73;67.30;100605.22;6094840;23;20023;-73
2023/06/30 02:51:48;;;;;;;5.38;1.65;;;;;;;17.74;67.35;100590.22;6093829;23;20026;-73
2023/06/30 02:54:14;;;;;;;2.35;1.60;;;;;;;17.75;67.44;100594.56;6096058;23;20022;-76
2023/06/30 02:56:41;;;;;;;2.47;1.38;;;;;;;17.76;67.60;100601.59;6095442;23;20077;-77
2023/06/30 02:59:08;;;;;;;5.57;1.70;;;;;;;17.74;67.74;100595.50;6095530;23;20018;-76
2023/06/30 03:01:36;;;;;;;2.28;1.20;;;;;;;17.76;67.80;100589.22;6094906;23;20057;-76
2023/06/30 03:04:04;;;;;;;4.18;1.45;;;;;;;17.77;67.63;100592.72;6095139;23;20041;-76
2023/06/30 03:06:31;;;;;;;2.72;1.73;;;;;;;17.79;68.01;100588.25;6095417;23;20082;-77
2023/06/30 03:08:58;;;;;;;1.60;1.50;;;;;;;17.72;68.05;100585.00;6095064;23;20019;-76
2023/06/30 03:11:26;;;;;;;1.92;1.65;;;;;;;17.82;68.21;100592.53;6094737;23;20030;-76
2023/06/30 03:13:53;;;;;;;1.20;1.10;;;;;;;17.84;68.34;100593.28;6095250;23;20094;-76
2023/06/30 03:16:20;;;;;;;1.88;1.60;;;;;;;17.85;68.43;100595.84;6095213;23;20027;-76
2023/06/30 03:18:48;;;;;;;3.35;1.40;;;;;;;17.88;68.49;100598.34;6095490;23;20355;-76
2023/06/30 03:21:15;;;;;;;2.92;1.52;;;;;;;17.89;68.44;100589.47;6095028;23;20040;-76
2023/06/30 03:23:42;;;;;;;3.53;1.65;;;;;;;17.93;68.93;100600.72;6095434;23;20028;-77
2023/06/30 03:26:09;;;;;;;2.72;1.17;;;;;;;17.91;68.88;100589.41;6095552;23;20026;-77
2023/06/30 03:28:36;;;;;;;3.13;1.90;;;;;;;17.96;69.18;100593.50;6095304;23;20025;-76
2023/06/30 03:31:03;;;;;;;4.47;1.65;;;;;;;17.99;69.16;100592.50;6095247;23;20392;-76
2023/06/30 03:33:30;;;;;;;2.10;1.90;;;;;;;18.02;69.06;100594.13;6095151;23;20027;-77
2023/06/30 03:35:58;;;;;;;3.22;1.60;;;;;;;18.05;69.34;100594.81;6094695;23;20097;-77
2023/06/30 03:38:25;;;;;;;1.70;1.60;;;;;;;18.08;69.25;100594.66;6095670;23;20396;-77
2023/06/30 03:40:52;;;;;;;1.92;1.83;;;;;;;18.11;69.73;100593.63;6095277;23;20025;-76
2023/06/30 03:43:23;;;;;;;2.33;1.70;;;;;;;18.15;69.89;100598.66;6095511;23;20018;-76
2023/06/30 03:45:50;;;;;;;3.90;1.90;;;;;;;18.19;70.02;100594.94;6095170;23;20022;-77
2023/06/30 03:48:17;;;;;;;3.90;2.08;;;;;;;18.24;70.09;100596.47;6095584;23;20401;-77
2023/06/30 03:50:44;;;;;;;2.15;1.85;;;;;;;18.28;70.22;100598.03;6095205;23;20025;-77
2023/06/30 03:53:12;;;;;;;3.33;2.05;;;;;;;18.28;70.20;100577.72;6095272;23;20027;-76
2023/06/30 03:55:39;;;;;;;1.80;1.70;;;;;;;18.37;70.14;100586.97;6095198;23;20105;-76
2023/06/30 03:58:06;;;;;;;2.10;1.80;;;;;;;18.43;70.07;100591.91;6094981;23;20453;-77
2023/06/30 04:00:33;;;;;;;4.38;1.75;;;;;;;18.47;70.49;100585.53;6095583;23;20343;-77
2023/06/30 04:03:00;;;;;;;2.10;1.90;;;;;;;18.54;70.76;100588.69;6095732;23;20393;-77
2023/06/30 04:05:27;;;;;;;3.95;1.73;;;;;;;18.60;70.34;100593.63;6095969;23;20029;-77
2023/06/30 04:07:54;;;;;;;4.43;2.08;;;;;;;18.65;70.38;100584.50;6094591;23;20022;-77
2023/06/30 04:10:23;;;;;;;3.95;1.90;;;;;;;18.72;70.16;100586.81;6095092;23;20031;-77
2023/06/30 04:12:50;;;;;;;4.10;1.77;;;;;;;18.78;69.98;100586.50;6097431;23;20028;-76
2023/06/30 04:15:16;;;;;;;2.08;1.98;;;;;;;18.85;70.14;100587.88;6097229;23;20022;-77
2023/06/30 04:17:43;;;;;;;2.42;1.98;;;;;;;18.91;70.23;100579.59;6097048;23;20101;-76
2023/06/30 04:20:15;;;;;;;3.55;1.88;;;;;;;18.98;70.29;100578.31;6097615;23;20022;-77
2023/06/30 04:22:42;;;;;;;1.67;1.58;;;;;;;19.05;70.48;100581.47;6095867;23;20023;-77
2023/06/30 04:25:10;;;;;;;26.55;2.67;;;;;;;19.12;70.14;100576.66;6097189;23;20022;-77
2023/06/30 04:27:39;;;;;;;2.60;2.00;;;;;;;19.17;70.26;100561.38;6097737;23;20025;-76
2023/06/30 04:30:07;;;;;;;3.05;1.80;;;;;;;19.27;70.67;100567.84;6097252;23;20025;-77
2023/06/30 04:32:34;;;;;;;2.45;1.83;;;;;;;19.35;70.67;100565.59;6097174;23;20019;-77
2023/06/30 04:35:01;;;;;;;4.63;1.90;;;;;;;19.43;70.60;100563.34;6097826;23;20065;-77
2023/06/30 04:37:28;;;;;;;3.13;1.77;;;;;;;19.51;70.26;100563.75;6097438;23;20598;-77
2023/06/30 04:39:56;;;;;;;2.08;1.73;;;;;;;19.60;70.14;100559.69;6097764;23;20030;-77
2023/06/30 04:42:23;;;;;;;1.55;1.45;;;;;;;19.69;69.85;100560.97;6097222;23;20018;-77
2023/06/30 04:44:51;;;;;;;1.70;1.45;;;;;;;19.75;69.31;100552.66;6097315;23;20097;-77
2023/06/30 04:47:18;;;;;;;3.67;1.45;;;;;;;19.79;69.04;100545.41;6097313;23;20089;-77
2023/06/30 04:49:45;;;;;;;3.38;1.40;;;;;;;19.95;68.94;100564.72;6098012;23;20026;-77
2023/06/30 04:52:13;;;;;;;1.80;1.55;;;;;;;20.04;68.88;100558.88;6097484;23;20061;-77
2023/06/30 04:54:41;;;;;;;2.45;1.52;;;;;;;20.14;68.57;100559.13;6097567;23;20082;-78
2023/06/30 04:57:08;;;;;;;4.90;1.40;;;;;;;20.20;68.08;100545.50;6097535;23;20025;-77
2023/06/30 04:59:35;;;;;;;8.35;1.30;;;;;;;20.34;67.71;100555.25;6097047;23;20022;-78
2023/06/30 05:02:03;;;;;;;3.30;1.90;;;;;;;20.45;67.96;100556.28;6097605;23;20062;-77
2023/06/30 05:04:30;;;;;;;2.20;2.00;;;;;;;20.55;67.75;100564.53;6096799;23;20449;-77
2023/06/30 05:06:57;;;;;;;1.92;1.50;;;;;;;20.66;67.65;100563.84;6097187;23;20356;-77
2023/06/30 05:09:24;;;;;;;4.00;2.20;;;;;;;20.76;67.62;100554.34;6097230;23;20344;-77
2023/06/30 05:11:51;;;;;;;2.38;1.85;;;;;;;20.88;68.07;100561.50;6097276;23;20102;-77
2023/06/30 05:14:18;;;;;;;6.90;2.17;;;;;;;20.97;67.55;100556.56;6097030;23;20022;-77
2023/06/30 05:16:44;;;;;;;6.18;1.90;;;;;;;21.07;67.60;100560.31;6097031;23;20088;-78
2023/06/30 05:19:13;;;;;;;2.65;1.45;;;;;;;21.18;66.93;100557.81;6096820;23;20460;-77
2023/06/30 05:21:40;;;;;;;2.75;1.45;;;;;;;21.28;66.83;100558.03;6096973;23;20018;-77
2023/06/30 05:24:07;;;;;;;2.25;1.40;;;;;;;21.40;66.76;100556.41;6096411;23;20032;-77
2023/06/30 05:26:34;;;;;;;2.95;1.00;;;;;;;21.50;66.06;100557.50;6096677;23;20058;-77
2023/06/30 05:29:01;;;;;;;3.70;1.42;;;;;;;21.55;65.65;100544.75;6096439;23;20022;-77
2023/06/30 05:31:27;;;;;;;8.00;1.60;;;;;;;21.69;65.66;100549.97;6096682;23;20029;-77
2023/06/30 05:33:54;;;;;;;2.15;1.45;;;;;;;21.81;65.09;100550.94;6096613;23;20018;-77
2023/06/30 05:36:23;;;;;;;1.73;1.50;;;;;;;21.92;64.60;100544.88;6096512;23;20029;-77
2023/06/30 05:38:49;;;;;;;2.45;1.17;;;;;;;22.02;64.25;100543.25;6096123;23;20033;-77
2023/06/30 05:41:16;;;;;;;1.30;1.20;;;;;;;22.13;63.38;100539.84;6096001;23;20029;-77
2023/06/30 05:43:43;;;;;;;2.67;1.40;;;;;;;22.22;63.25;100540.06;6096314;23;20093;-77
2023/06/30 05:46:10;;;;;;;1.67;1.20;;;;;;;22.31;62.85;100535.06;6096376;23;20022;-77
2023/06/30 05:48:37;;;;;;;2.03;1.38;;;;;;;22.40;62.91;100537.09;6096087;23;20029;-77
2023/06/30 05:51:04;;;;;;;5.40;1.20;;;;;;;22.48;62.35;100529.38;6096281;23;20025;-77
2023/06/30 05:53:32;;;;;;;2.78;1.50;;;;;;;22.57;62.22;100531.41;6096755;23;20459;-78
2023/06/30 05:55:59;;;;;;;2.17;1.35;;;;;;;22.63;62.21;100530.94;6096243;23;20022;-77
2023/06/30 05:58:26;;;;;;;1.05;0.95;;;;;;;22.68;61.16;100528.81;6095977;23;20019;-77
2023/06/30 06:00:53;;;;;;;1.92;1.10;;;;;;;22.76;61.64;100530.03;6095973;23;20018;-78
2023/06/30 06:03:20;;;;;;;1.73;1.25;;;;;;;22.81;61.75;100531.41;6095953;23;20042;-78
2023/06/30 06:05:47;;;;;;;3.50;1.08;;;;;;;22.86;61.22;100531.06;6096285;23;20029;-77
2023/06/30 06:08:13;;;;;;;2.95;1.10;;;;;;;22.91;60.68;100531.59;6096232;23;20037;-77
2023/06/30 06:10:43;;;;;;;2.33;1.90;;;;;;;22.95;60.47;100519.75;6096283;23;20018;-77
2023/06/30 06:13:10;;;;;;;1.85;1.00;;;;;;;23.00;60.17;100519.44;6095619;23;20018;-77
2023/06/30 06:15:37;;;;;;;1.95;1.08;;;;;;;23.07;59.61;100518.84;6095802;23;20037;-78
2023/06/30 06:18:04;;;;;;;1.08;0.90;;;;;;;23.15;59.70;100525.41;6095490;23;20022;-77
2023/06/30 06:20:31;;;;;;;1.17;0.90;;;;;;;23.21;59.43;100522.28;6095589;23;20054;-78
2023/06/30 06:22:57;;;;;;;1.55;0.98;;;;;;;23.27;59.41;100516.50;6094892;23;20485;-77
2023/06/30 06:25:24;;;;;;;1.88;0.90;;;;;;;23.31;58.96;100525.97;6095340;23;20025;-77
2023/06/30 06:27:53;;;;;;;1.58;1.10;;;;;;;23.34;58.49;100523.06;6095572;23;20022;-77
2023/06/30 06:30:20;;;;;;;1.92;1.10;;;;;;;23.32;58.65;100511.66;6095761;23;20019;-77
2023/06/30 06:32:46;;;;;;;1.15;0.90;;;;;;;23.35;58.40;100520.28;6095551;23;20348;-76
2023/06/30 06:35:14;;;;;;;3.05;1.02;;;;;;;23.38;58.10;100519.19;6095374;23;20360;-76
2023/06/30 06:37:41;;;;;;;1.20;1.10;;;;;;;23.40;58.13;100519.94;6095424;23;20062;-77
2023/06/30 06:40:08;;;;;;;2.03;0.93;;;;;;;23.45;58.46;100520.44;6095211;23;20025;-77
2023/06/30 06:42:35;;;;;;;1.30;1.13;;;;;;;23.49;58.07;100523.72;6094770;23;20587;-77
2023/06/30 06:45:04;;;;;;;2.30;1.02;;;;;;;23.53;57.98;100511.81;6095194;23;20034;-77
2023/06/30 06:48:08;;;;;;;3.17;1.15;;;;;;;23.60;57.97;100514.88;6095472;23;20033;-77
2023/06/30 06:50:35;;;;;;;2.15;0.80;;;;;;;23.63;57.99;100512.81;6095340;23;20019;-77
2023/06/30 06:53:02;;;;;;;2.35;0.70;;;;;;;23.69;58.19;100512.34;6095322;23;20037;-77
2023/06/30 06:55:29;;;;;;;1.02;0.88;;;;;;;23.75;57.31;100511.91;6095511;23;20032;-77
2023/06/30 06:57:56;;;;;;;1.02;0.80;;;;;;;23.82;57.28;100511.41;6095397;23;20018;-77
2023/06/30 07:00:24;;;;;;;0.90;0.75;;;;;;;23.88;57.10;100508.25;6095246;23;20321;-76
2023/06/30 07:02:51;;;;;;;1.75;1.20;;;;;;;23.90;57.43;100499.16;6094550;23;20019;-77
2023/06/30 07:05:19;;;;;;;3.42;1.05;;;;;;;24.00;56.80;100500.16;6095139;23;20045;-77
2023/06/30 07:07:45;;;;;;;1.75;0.82;;;;;;;24.11;57.27;100506.47;6094344;23;20026;-76
2023/06/30 07:10:12;;;;;;;2.00;0.95;;;;;;;24.20;56.91;100508.41;6094863;23;20499;-77
2023/06/30 07:12:39;;;;;;;2.63;1.17;;;;;;;24.26;56.51;100499.91;6094598;23;20018;-78
2023/06/30 07:15:07;;;;;;;3.08;0.90;;;;;;;24.34;56.87;100504.63;6094879;23;20029;-77
2023/06/30 07:17:35;;;;;;;2.85;1.00;;;;;;;24.40;56.38;100496.13;6094909;23;20029;-76
2023/06/30 07:20:02;;;;;;;2.55;1.17;;;;;;;24.49;56.36;100507.91;6094596;23;20105;-77
2023/06/30 07:22:29;;;;;;;2.92;0.80;;;;;;;24.55;56.11;100508.25;6094501;23;20097;-77
2023/06/30 07:24:56;;;;;;;1.05;0.95;;;;;;;24.60;56.08;100497.19;6094438;23;20030;-77
2023/06/30 07:27:23;;;;;;;0.90;0.70;;;;;;;24.71;55.40;100494.50;6094765;23;20110;-77
2023/06/30 07:29:50;;;;;;;1.33;1.23;;;;;;;24.77;54.77;100496.66;6094596;23;20485;-77
2023/06/30 07:32:17;;;;;;;1.85;1.10;;;;;;;24.84;54.87;100500.50;6094094;23;20026;-77
2023/06/30 07:34:45;;;;;;;1.35;0.95;;;;;;;24.90;55.54;100494.69;6095039;23;20037;-78
2023/06/30 07:37:12;;;;;;;2.40;0.77;;;;;;;24.88;55.07;100475.25;6094318;23;20029;-77
2023/06/30 07:39:39;;;;;;;1.63;0.93;;;;;;;25.05;54.59;100494.38;6095439;23;20337;-77
2023/06/30 07:42:06;;;;;;;1.85;1.42;;;;;;;25.08;54.71;100491.44;6094517;23;20018;-77
2023/06/30 07:44:33;;;;;;;1.88;1.17;;;;;;;25.17;54.48;100493.38;6094715;23;20024;-78
2023/06/30 07:47:00;;;;;;;1.10;1.00;;;;;;;25.21;54.23;100492.13;6094902;23;20352;-77
2023/06/30 07:49:27;;;;;;;3.17;1.63;;;;;;;25.27;54.73;100494.31;6095234;23;20093;-77
2023/06/30 07:51:55;;;;;;;1.42;1.08;;;;;;;25.23;54.69;100473.28;6094806;23;20018;-78
2023/06/30 07:54:22;;;;;;;2.15;1.35;;;;;;;25.37;54.14;100480.97;6095111;23;20030;-78
2023/06/30 07:56:49;;;;;;;3.03;1.60;;;;;;;25.43;53.78;100491.16;6094790;23;20363;-78
2023/06/30 07:59:16;;;;;;;1.05;0.80;;;;;;;25.47;53.44;100484.56;6094409;23;20033;-78
2023/06/30 08:01:43;;;;;;;3.53;1.33;;;;;;;25.53;54.34;100485.88;6094092;23;20141;-78
2023/06/30 08:04:11;;;;;;;1.50;1.30;;;;;;;25.56;53.35;100485.59;6094736;23;20018;-78
2023/06/30 08:06:37;;;;;;;1.85;1.35;;;;;;;25.60;53.64;100484.34;6094223;23;20022;-78
2023/06/30 08:09:06;;;;;;;2.33;1.48;;;;;;;25.62;53.35;100474.38;6094310;23;20106;-78
2023/06/30 08:11:33;;;;;;;1.42;0.90;;;;;;;25.65;53.01;100481.28;6094119;23;20022;-78
2023/06/30 08:14:02;;;;;;;1.00;0.88;;;;;;;25.66;52.87;100470.44;6094912;23;20490;-78
2023/06/30 08:16:28;;;;;;;2.55;0.90;;;;;;;25.67;52.61;100465.94;6094793;23;20026;-78
2023/06/30 08:18:55;;;;;;;8.07;2.28;;;;;;;25.68;52.60;100464.97;6095007;23;20029;-78
2023/06/30 08:21:22;;;;;;;1.20;0.98;;;;;;;25.70;53.20;100471.88;6094514;23;20105;-78
2023/06/30 08:23:49;;;;;;;1.70;0.77;;;;;;;25.73;52.86;100460.91;6094177;23;20344;-78
2023/06/30 08:26:18;;;;;;;1.92;1.10;;;;;;;25.76;51.38;100455.28;6094091;23;20062;-78
2023/06/30 08:28:45;;;;;;;4.93;0.80;;;;;;;25.83;52.00;100457.47;6095174;23;20758;-78
2023/06/30 08:31:12;;;;;;;0.80;0.80;;;;;;;25.87;52.28;100465.09;6094481;23;20025;-78
2023/06/30 08:33:39;;;;;;;1.15;0.90;;;;;;;25.82;51.27;100437.88;6094169;23;20097;-78
2023/06/30 08:36:07;;;;;;;2.90;1.10;;;;;;;25.96;51.37;100455.41;6094128;23;20029;-78
2023/06/30 08:38:33;;;;;;;1.10;1.00;;;;;;;25.97;51.22;100447.22;6094656;23;20073;-78
2023/06/30 08:41:02;;;;;;;2.88;0.95;;;;;;;26.00;50.49;100456.81;6094492;23;20028;-78
2023/06/30 08:43:32;;;;;;;4.95;1.20;;;;;;;26.02;50.34;100453.03;6094882;23;20022;-78
2023/06/30 08:46:02;;;;;;;1.80;1.02;;;;;;;26.02;49.80;100450.34;6094436;23;20029;-79
2023/06/30 08:48:30;;;;;;;4.35;1.17;;;;;;;26.01;49.87;100447.81;6094256;23;20463;-77
2023/06/30 08:50:59;;;;;;;1.45;1.13;;;;;;;26.06;50.43;100448.25;6094464;23;20018;-78
2023/06/30 08:53:28;;;;;;;3.22;1.55;;;;;;;26.08;49.46;100454.31;6094277;23;20019;-78
2023/06/30 08:55:59;;;;;;;2.05;1.25;;;;;;;26.11;49.48;100458.56;6095166;23;20081;-78
2023/06/30 08:58:27;;;;;;;1.40;1.30;;;;;;;26.13;49.73;100454.75;6095512;23;20352;-78
2023/06/30 09:00:56;;;;;;;3.20;0.93;;;;;;;26.15;49.19;100450.09;6095967;23;20355;-78
2023/06/30 09:03:23;;;;;;;1.77;1.00;;;;;;;26.18;49.24;100455.22;6096128;23;20464;-78
2023/06/30 09:05:53;;;;;;;1.00;0.90;;;;;;;26.21;48.70;100451.38;6096140;23;20056;-78
2023/06/30 09:08:24;;;;;;;2.83;0.90;;;;;;;26.18;48.47;100433.78;6095761;23;20026;-77
2023/06/30 09:10:53;;;;;;;2.53;0.75;;;;;;;26.27;48.22;100444.63;6095702;23;20030;-78
2023/06/30 09:13:21;;;;;;;0.80;0.80;;;;;;;26.32;48.53;100437.03;6095916;23;20029;-77
2023/06/30 09:15:49;;;;;;;2.92;0.88;;;;;;;26.34;48.72;100441.28;6096383;23;20034;-78
2023/06/30 09:18:17;;;;;;;0.93;0.90;;;;;;;26.37;48.15;100442.81;6095957;23;20030;-78
2023/06/30 09:20:44;;;;;;;0.90;0.70;;;;;;;26.36;48.05;100430.44;6096232;23;20018;-77
2023/06/30 09:23:13;;;;;;;1.42;0.70;;;;;;;26.40;47.62;100443.38;6095837;23;20125;-77
2023/06/30 09:25:41;;;;;;;0.98;0.70;;;;;;;26.41;47.75;100433.50;6095264;23;20026;-78
2023/06/30 09:28:12;;;;;;;2.25;0.80;;;;;;;26.45;48.35;100434.94;6095565;23;20038;-77
2023/06/30 09:30:41;;;;;;;0.77;0.60;;;;;;;26.45;47.50;100429.59;6095629;23;20621;-78
2023/06/30 09:33:08;;;;;;;0.80;0.80;;;;;;;26.45;47.59;100429.59;6095337;23;20389;-77
2023/06/30 09:35:41;;;;;;;1.50;0.57;;;;;;;26.45;47.50;100432.28;6095219;23;20082;-77
2023/06/30 09:38:12;;;;;;;0.80;0.80;;;;;;;26.46;47.61;100425.91;6095868;23;20025;-78
2023/06/30 09:40:42;;;;;;;0.77;0.60;;;;;;;26.46;47.24;100431.28;6095839;23;20097;-77
2023/06/30 09:43:09;;;;;;;4.18;0.70;;;;;;;26.47;47.84;100433.00;6095980;23;20022;-77
2023/06/30 09:45:36;;;;;;;2.05;0.63;;;;;;;26.48;48.10;100430.16;6095080;23;20026;-77
2023/06/30 09:48:03;;;;;;;2.83;0.80;;;;;;;26.48;47.70;100426.63;6095866;23;20022;-78
2023/06/30 09:50:32;;;;;;;0.90;0.80;;;;;;;26.46;47.75;100425.91;6095419;23;20029;-78
2023/06/30 09:53:02;;;;;;;2.28;0.70;;;;;;;26.48;48.56;100429.31;6095425;23;20085;-77
2023/06/30 09:55:29;;;;;;;2.97;0.50;;;;;;;26.47;47.69;100416.91;6095049;23;20029;-77
2023/06/30 09:57:57;;;;;;;0.68;0.50;;;;;;;26.48;47.89;100410.56;6095643;23;20024;-78
2023/06/30 10:00:25;;;;;;;1.17;0.88;;;;;;;26.49;47.84;100422.97;6095482;23;20022;-78
2023/06/30 10:03:07;;;;;;;0.55;0.50;;;;;;;26.42;47.13;100400.41;6096381;23;20025;-78
2023/06/30 10:05:34;;;;;;;1.15;0.43;;;;;;;26.47;46.76;100423.13;6095428;23;20491;-78
2023/06/30 10:08:02;;;;;;;0.40;0.40;;;;;;;26.50;46.99;100426.47;6095089;23;20022;-78
2023/06/30 10:10:30;;;;;;;0.82;0.50;;;;;;;26.48;46.59;100422.13;6095751;23;20540;-78
2023/06/30 10:12:58;;;;;;;0.52;0.40;;;;;;;26.48;46.72;100410.56;6095255;23;20026;-79
2023/06/30 10:15:26;;;;;;;2.28;0.32;;;;;;;26.42;46.96;100413.81;6095520;23;20086;-78
2023/06/30 10:17:54;;;;;;;0.85;0.50;;;;;;;26.45;46.71;100413.53;6095610;23;20018;-77
2023/06/30 10:20:21;;;;;;;0.40;0.40;;;;;;;26.45;46.55;100418.88;6095840;23;20093;-77
2023/06/30 10:22:48;;;;;;;0.50;0.47;;;;;;;26.44;45.98;100406.44;6094866;23;20023;-78
2023/06/30 10:25:20;;;;;;;0.90;0.65;;;;;;;26.43;46.60;100404.78;6094735;23;20025;-78
2023/06/30 10:27:49;;;;;;;0.75;0.75;;;;;;;26.43;46.06;100402.09;6095639;23;20057;-79
2023/06/30 10:30:17;;;;;;;2.15;0.60;;;;;;;26.42;46.19;100403.09;6095277;23;20344;-78
2023/06/30 10:32:44;;;;;;;0.50;0.43;;;;;;;26.37;46.37;100402.66;6095059;23;20019;-78
2023/06/30 10:35:14;;;;;;;0.40;0.40;;;;;;;26.42;46.31;100400.41;6095674;23;20022;-78
2023/06/30 10:37:42;;;;;;;0.30;0.30;;;;;;;26.43;46.20;100404.78;6095103;23;20022;-78
2023/06/30 10:40:23;;;;;;;0.73;0.30;;;;;;;26.40;46.51;100389.00;6094916;23;20024;-78
2023/06/30 10:42:52;;;;;;;0.30;0.30;;;;;;;26.42;46.04;100390.53;6095733;23;20026;-78
2023/06/30 10:45:20;;;;;;;0.57;0.47;;;;;;;26.43;45.22;100386.03;6095041;23;20026;-78
2023/06/30 10:47:50;;;;;;;0.50;0.40;;;;;;;26.40;45.66;100378.28;6095508;23;20019;-77
2023/06/30 10:50:17;;;;;;;0.38;0.30;;;;;;;26.43;45.04;100376.16;6094738;23;20026;-78
2023/06/30 10:52:52;;;;;;;0.60;0.40;;;;;;;26.44;45.54;100383.22;6094700;23;20023;-77
2023/06/30 10:55:24;;;;;;;1.10;0.35;;;;;;;26.43;45.21;100378.84;6095274;23;20023;-77
2023/06/30 10:57:53;;;;;;;0.35;0.35;;;;;;;26.42;45.46;100370.94;6094957;23;20025;-78
2023/06/30 11:00:24;;;;;;;0.40;0.40;;;;;;;26.43;45.84;100370.78;6094696;23;20468;-77
2023/06/30 11:02:56;;;;;;;4.40;0.40;;;;;;;26.45;45.78;100368.00;6095255;23;20073;-77
2023/06/30 11:05:24;;;;;;;0.30;0.30;;;;;;;26.45;44.82;100368.84;6095248;23;20022;-78
2023/06/30 11:07:53;;;;;;;1.02;0.40;;;;;;;26.46;45.38;100361.63;6094656;23;20026;-77
2023/06/30 11:10:27;;;;;;;3.80;0.93;;;;;;;26.44;45.42;100359.13;6094972;23;20026;-78
2023/06/30 11:12:57;;;;;;;0.35;0.30;;;;;;;26.44;45.18;100355.56;6095122;23;20025;-77
2023/06/30 11:15:29;;;;;;;0.30;0.30;;;;;;;26.46;44.69;100358.97;6095667;23;20018;-78
2023/06/30 11:18:00;;;;;;;1.38;0.30;;;;;;;26.45;45.19;100359.97;6094874;23;20022;-77
2023/06/30 11:20:29;;;;;;;1.95;0.30;;;;;;;26.45;45.15;100365.31;6094627;23;20022;-78
2023/06/30 11:22:58;;;;;;;0.50;0.30;;;;;;;26.45;44.45;100368.00;6094907;23;20049;-77
2023/06/30 11:25:26;;;;;;;0.35;0.30;;;;;;;26.44;44.80;100360.91;6095300;23;20081;-78
2023/06/30 11:27:53;;;;;;;0.30;0.30;;;;;;;26.41;45.27;100353.19;6094379;23;20482;-78